createdAt,value
2022-09-23T00:01:00.008Z,1.42
2022-09-23T00:03:28.808Z,1.40
2022-09-23T00:05:59.854Z,1.33
2022-09-23T00:08:26.524Z,1.73
2022-09-23T00:10:53.060Z,1.20
2022-09-23T00:13:19.559Z,1.38
2022-09-23T00:15:46.668Z,1.48
2022-09-23T00:18:13.238Z,1.58
2022-09-23T00:20:40.394Z,1.58
2022-09-23T00:23:06.958Z,1.02
2022-09-23T00:25:33.875Z,1.42
2022-09-23T00:28:00.399Z,1.77
2022-09-23T00:30:27.143Z,1.30
2022-09-23T00:32:53.708Z,1.30
2022-09-23T00:35:20.181Z,1.25
2022-09-23T00:37:46.739Z,1.80
2022-09-23T00:40:13.395Z,1.70
2022-09-23T00:42:47.719Z,1.52
2022-09-23T00:45:15.694Z,1.35
2022-09-23T00:47:54.419Z,1.63
2022-09-23T00:50:26.335Z,1.13
2022-09-23T00:52:56.534Z,1.20
2022-09-23T00:55:27.558Z,1.10
2022-09-23T00:57:57.552Z,1.27
2022-09-23T01:00:24.166Z,1.35
2022-09-23T01:02:51.406Z,1.42
2022-09-23T01:05:18.795Z,1.23
2022-09-23T01:07:46.064Z,1.30
2022-09-23T01:10:15.963Z,1.40
2022-09-23T01:13:08.237Z,1.10
2022-09-23T01:15:38.952Z,1.30
2022-09-23T01:18:39.955Z,1.40
2022-09-23T01:21:22.108Z,1.60
2022-09-23T01:24:29.177Z,1.27
2022-09-23T01:27:06.060Z,1.17
2022-09-23T01:29:57.332Z,1.20
2022-09-23T01:32:48.710Z,1.13
2022-09-23T01:35:30.223Z,1.30
2022-09-23T01:38:22.716Z,1.25
2022-09-23T01:40:59.395Z,1.10
2022-09-23T01:43:39.017Z,1.30
2022-09-23T01:46:12.774Z,1.13
2022-09-23T01:48:47.077Z,0.93
2022-09-23T01:51:37.908Z,1.25
2022-09-23T01:54:15.885Z,1.40
2022-09-23T01:56:51.768Z,1.42
2022-09-23T01:59:39.265Z,1.00
2022-09-23T02:02:28.223Z,1.10
2022-09-23T02:05:14.760Z,1.00
2022-09-23T02:08:07.897Z,0.98
2022-09-23T02:10:45.617Z,1.60
2022-09-23T02:13:35.094Z,1.13
2022-09-23T02:16:11.735Z,1.17
2022-09-23T02:21:14.428Z,1.20
2022-09-23T02:23:52.933Z,1.40
2022-09-23T02:26:56.756Z,1.10
2022-09-23T02:29:49.537Z,1.30
2022-09-23T02:32:25.867Z,0.93
2022-09-23T02:35:18.524Z,1.50
2022-09-23T02:38:02.911Z,1.30
2022-09-23T02:40:58.867Z,1.05
2022-09-23T02:43:45.564Z,1.35
2022-09-23T02:46:13.245Z,1.00
2022-09-23T02:49:23.885Z,1.17
2022-09-23T02:51:57.613Z,1.17
2022-09-23T02:54:26.993Z,1.10
2022-09-23T02:56:54.197Z,0.93
2022-09-23T02:59:22.990Z,1.38
2022-09-23T03:02:20.583Z,1.42
2022-09-23T03:05:44.527Z,1.30
2022-09-23T03:08:32.441Z,1.35
2022-09-23T03:11:14.202Z,1.08
2022-09-23T03:14:05.522Z,1.20
2022-09-23T03:17:04.001Z,1.10
2022-09-23T03:20:00.981Z,1.20
2022-09-23T03:22:36.310Z,1.20
2022-09-23T03:27:39.212Z,1.20
2022-09-23T03:30:19.693Z,1.35
2022-09-23T03:32:52.482Z,1.38
2022-09-23T03:35:21.730Z,1.25
2022-09-23T03:37:56.888Z,1.63
2022-09-23T03:40:32.355Z,1.27
2022-09-23T03:45:34.072Z,1.25
2022-09-23T03:48:03.001Z,1.00
2022-09-23T03:50:29.640Z,0.98
2022-09-23T03:53:02.324Z,1.20
2022-09-23T03:55:31.320Z,1.10
2022-09-23T03:58:00.325Z,1.10
2022-09-23T04:00:28.310Z,1.35
2022-09-23T04:02:59.685Z,1.40
2022-09-23T04:05:26.662Z,1.40
2022-09-23T04:07:55.441Z,1.40
2022-09-23T04:10:23.428Z,1.15
2022-09-23T04:12:51.301Z,1.10
2022-09-23T04:15:19.111Z,1.08
2022-09-23T04:17:47.052Z,1.42
2022-09-23T04:20:16.320Z,1.85
2022-09-23T04:22:42.955Z,1.30
2022-09-23T04:25:17.452Z,1.60
2022-09-23T04:27:44.483Z,1.42
2022-09-23T04:30:12.054Z,1.13
2022-09-23T04:32:46.567Z,1.30
2022-09-23T04:35:13.303Z,1.23
2022-09-23T04:37:40.392Z,1.20
2022-09-23T04:40:08.481Z,1.33
2022-09-23T04:42:38.482Z,1.20
2022-09-23T04:45:08.475Z,1.20
2022-09-23T04:47:35.321Z,1.10
2022-09-23T04:50:05.112Z,1.15
2022-09-23T04:52:32.971Z,1.30
2022-09-23T04:55:01.441Z,1.52
2022-09-23T04:57:35.186Z,1.50
2022-09-23T05:00:03.765Z,1.02
2022-09-23T05:02:32.048Z,1.23
2022-09-23T05:04:59.915Z,1.40
2022-09-23T05:07:26.854Z,1.38
2022-09-23T05:09:55.252Z,1.58
2022-09-23T05:12:26.607Z,1.27
2022-09-23T05:14:53.323Z,1.40
2022-09-23T05:17:21.921Z,1.58
2022-09-23T05:19:53.249Z,1.45
2022-09-23T05:22:23.104Z,1.67
2022-09-23T05:24:51.167Z,1.48
2022-09-23T05:27:17.846Z,1.33
2022-09-23T05:29:46.210Z,1.77
2022-09-23T05:32:15.947Z,1.50
2022-09-23T05:34:48.539Z,1.40
2022-09-23T05:37:18.300Z,1.30
2022-09-23T05:39:47.536Z,1.83
2022-09-23T05:42:18.402Z,1.98
2022-09-23T05:44:47.128Z,2.15
2022-09-23T05:47:16.818Z,2.20
2022-09-23T05:49:59.120Z,2.50
2022-09-23T05:52:26.885Z,3.83
2022-09-23T05:54:57.441Z,3.40
2022-09-23T05:57:24.987Z,4.05
2022-09-23T05:59:54.971Z,4.03
2022-09-23T06:02:21.769Z,3.88
2022-09-23T06:04:51.605Z,4.80
2022-09-23T06:07:20.200Z,3.60
2022-09-23T06:09:51.799Z,3.80
2022-09-23T06:12:18.814Z,3.58
2022-09-23T06:14:47.108Z,3.55
2022-09-23T06:17:16.504Z,3.17
2022-09-23T06:19:48.104Z,2.83
2022-09-23T06:22:17.254Z,2.22
2022-09-23T06:24:44.174Z,2.40
2022-09-23T06:27:10.857Z,2.60
2022-09-23T06:29:37.569Z,2.05
2022-09-23T06:32:06.431Z,2.72
2022-09-23T06:34:44.899Z,1.65
2022-09-23T06:37:20.211Z,2.33
2022-09-23T06:39:47.857Z,2.13
2022-09-23T06:42:15.946Z,1.90
2022-09-23T06:44:45.133Z,2.20
2022-09-23T06:47:13.603Z,2.75
2022-09-23T06:49:40.348Z,2.20
2022-09-23T06:52:07.006Z,2.17
2022-09-23T06:54:33.775Z,2.60
2022-09-23T06:57:01.305Z,2.33
2022-09-23T06:59:31.805Z,2.20
2022-09-23T07:01:58.711Z,2.47
2022-09-23T07:04:29.559Z,2.53
2022-09-23T07:07:04.797Z,1.70
2022-09-23T07:09:38.928Z,2.08
2022-09-23T07:12:12.349Z,2.00
2022-09-23T07:14:42.936Z,2.33
2022-09-23T07:17:10.240Z,2.55
2022-09-23T07:19:39.484Z,1.90
2022-09-23T07:22:10.524Z,2.35
2022-09-23T07:24:41.216Z,2.33
2022-09-23T07:27:10.915Z,2.10
2022-09-23T07:29:48.889Z,2.13
2022-09-23T07:32:21.457Z,2.13
2022-09-23T07:34:51.575Z,1.85
2022-09-23T07:37:19.026Z,2.30
2022-09-23T07:39:50.484Z,1.75
2022-09-23T07:42:23.670Z,2.00
2022-09-23T07:44:54.642Z,1.80
2022-09-23T07:47:29.350Z,1.85
2022-09-23T07:49:56.328Z,1.80
2022-09-23T07:52:24.902Z,1.73
2022-09-23T07:54:55.118Z,3.75
2022-09-23T07:57:26.084Z,1.80
2022-09-23T07:59:56.344Z,1.40
2022-09-23T08:02:24.591Z,1.63
2022-09-23T08:04:55.170Z,1.05
2022-09-23T08:07:22.007Z,2.25
2022-09-23T08:09:55.633Z,1.67
2022-09-23T08:12:22.625Z,1.17
2022-09-23T08:14:52.391Z,1.42
2022-09-23T08:17:21.127Z,1.60
2022-09-23T08:19:51.373Z,1.25
2022-09-23T08:22:20.745Z,1.55
2022-09-23T08:24:48.342Z,1.45
2022-09-23T08:27:16.382Z,1.33
2022-09-23T08:29:53.878Z,1.90
2022-09-23T08:32:23.332Z,1.35
2022-09-23T08:34:52.858Z,1.50
2022-09-23T08:37:27.166Z,1.60
2022-09-23T08:39:54.991Z,1.60
2022-09-23T08:42:33.596Z,1.73
2022-09-23T08:45:08.308Z,1.15
2022-09-23T08:48:10.796Z,1.77
2022-09-23T08:50:47.592Z,1.70
2022-09-23T08:53:38.501Z,1.35
2022-09-23T08:56:17.708Z,1.55
2022-09-23T08:59:12.159Z,1.60
2022-09-23T09:01:44.760Z,1.30
2022-09-23T09:04:36.194Z,1.60
2022-09-23T09:07:35.755Z,1.95
2022-09-23T09:10:20.995Z,1.75
2022-09-23T09:13:00.934Z,1.52
2022-09-23T09:15:34.607Z,1.95
2022-09-23T09:18:07.948Z,1.67
2022-09-23T09:20:57.526Z,1.58
2022-09-23T09:23:35.038Z,1.48
2022-09-23T09:26:04.223Z,2.10
2022-09-23T09:28:46.661Z,1.58
2022-09-23T09:31:31.411Z,1.55
2022-09-23T09:34:26.422Z,1.92
2022-09-23T09:37:11.489Z,1.63
2022-09-23T09:39:39.932Z,1.52
2022-09-23T09:42:07.511Z,1.73
2022-09-23T09:44:42.486Z,1.50
2022-09-23T09:47:48.146Z,1.60
2022-09-23T09:50:41.755Z,1.67
2022-09-23T09:53:16.848Z,1.40
2022-09-23T09:55:44.129Z,7.85
2022-09-23T09:58:17.615Z,1.63
2022-09-23T10:00:46.074Z,1.80
2022-09-23T10:03:13.886Z,3.60
2022-09-23T10:05:52.501Z,2.25
2022-09-23T10:08:41.684Z,1.75
2022-09-23T10:11:18.974Z,1.40
2022-09-23T10:14:05.957Z,1.25
2022-09-23T10:16:51.606Z,1.52
2022-09-23T10:19:29.200Z,1.98
2022-09-23T10:22:05.315Z,1.35
2022-09-23T10:24:41.273Z,2.20
2022-09-23T10:27:27.664Z,1.55
2022-09-23T10:30:06.800Z,3.45
2022-09-23T10:32:48.755Z,2.15
2022-09-23T10:35:25.320Z,2.00
2022-09-23T10:37:58.445Z,1.45
2022-09-23T10:41:00.310Z,1.30
2022-09-23T10:44:19.814Z,1.30
2022-09-23T10:47:04.275Z,1.17
2022-09-23T10:49:52.654Z,1.13
2022-09-23T10:52:35.316Z,1.02
2022-09-23T10:55:25.100Z,1.23
2022-09-23T10:58:22.816Z,1.20
2022-09-23T11:01:15.892Z,1.08
2022-09-23T11:03:58.335Z,1.60
2022-09-23T11:06:53.077Z,0.98
2022-09-23T11:09:52.676Z,0.90
2022-09-23T11:12:40.978Z,0.93
2022-09-23T11:15:35.937Z,1.00
2022-09-23T11:18:42.878Z,1.17
2022-09-23T11:21:41.158Z,1.13
2022-09-23T11:24:38.929Z,1.52
2022-09-23T11:27:41.779Z,1.00
2022-09-23T11:30:20.056Z,1.25
2022-09-23T11:33:05.798Z,1.20
2022-09-23T11:35:55.827Z,1.02
2022-09-23T11:38:37.839Z,0.77
2022-09-23T11:41:33.044Z,1.00
2022-09-23T11:44:20.389Z,1.55
2022-09-23T11:46:55.885Z,1.50
2022-09-23T11:49:28.109Z,1.08
2022-09-23T11:52:13.231Z,0.57
2022-09-23T11:55:00.339Z,0.65
2022-09-23T11:57:46.008Z,0.82
2022-09-23T12:00:38.628Z,0.75
2022-09-23T12:03:34.841Z,0.73
2022-09-23T12:06:17.771Z,0.95
2022-09-23T12:08:50.379Z,1.02
2022-09-23T12:11:38.137Z,0.60
2022-09-23T12:14:27.521Z,1.00
2022-09-23T12:17:27.057Z,0.88
2022-09-23T12:20:28.195Z,0.80
2022-09-23T12:23:28.918Z,0.40
2022-09-23T12:26:00.697Z,1.40
2022-09-23T12:28:33.764Z,0.50
2022-09-23T12:31:02.049Z,0.80
2022-09-23T12:33:34.109Z,0.40
2022-09-23T12:36:10.914Z,0.43
2022-09-23T12:38:46.669Z,0.75
2022-09-23T12:41:42.393Z,0.60
2022-09-23T12:44:15.679Z,0.55
2022-09-23T12:46:44.961Z,0.65
2022-09-23T12:49:36.059Z,1.23
2022-09-23T12:52:15.499Z,0.60
2022-09-23T12:54:45.011Z,0.90
2022-09-23T12:57:31.614Z,0.55
2022-09-23T13:00:07.165Z,0.57
2022-09-23T13:03:11.356Z,0.88
2022-09-23T13:06:05.125Z,0.82
2022-09-23T13:08:39.350Z,0.55
2022-09-23T13:11:19.594Z,0.60
2022-09-23T13:14:01.316Z,0.70
2022-09-23T13:16:42.050Z,0.90
2022-09-23T13:19:28.946Z,0.88
2022-09-23T13:22:09.353Z,0.60
2022-09-23T13:24:44.708Z,1.08
2022-09-23T13:27:18.412Z,0.60
2022-09-23T13:30:27.148Z,0.60
2022-09-23T13:33:42.947Z,1.00
2022-09-23T13:36:17.674Z,0.60
2022-09-23T13:38:47.297Z,0.70
2022-09-23T13:41:18.858Z,0.57
2022-09-23T13:43:56.801Z,0.70
2022-09-23T13:46:45.889Z,0.68
2022-09-23T13:49:48.230Z,0.90
2022-09-23T13:52:31.896Z,1.00
2022-09-23T13:55:07.529Z,0.60
2022-09-23T13:57:37.452Z,0.65
2022-09-23T14:00:13.286Z,0.70
2022-09-23T14:02:47.081Z,0.70
2022-09-23T14:05:25.232Z,0.83
2022-09-23T14:08:00.475Z,0.47
2022-09-23T14:10:32.622Z,0.70
2022-09-23T14:12:59.791Z,0.80
2022-09-23T14:15:33.315Z,1.13
2022-09-23T14:18:06.679Z,0.70
2022-09-23T14:20:47.494Z,1.35
2022-09-23T14:23:17.339Z,0.73
2022-09-23T14:25:46.930Z,1.00
2022-09-23T14:28:23.733Z,0.73
2022-09-23T14:30:57.115Z,1.30
2022-09-23T14:33:31.892Z,0.85
2022-09-23T14:36:09.029Z,0.68
2022-09-23T14:38:51.280Z,0.77
2022-09-23T14:41:26.261Z,0.60
2022-09-23T14:44:03.156Z,1.10
2022-09-23T14:46:40.356Z,0.55
2022-09-23T14:49:23.559Z,0.63
2022-09-23T14:52:09.460Z,0.82
2022-09-23T14:54:47.155Z,0.80
2022-09-23T14:57:32.269Z,2.08
2022-09-23T15:00:48.987Z,0.77
2022-09-23T15:03:23.853Z,0.70
2022-09-23T15:06:08.793Z,0.80
2022-09-23T15:08:39.673Z,1.00
2022-09-23T15:11:08.850Z,1.63
2022-09-23T15:13:40.459Z,0.98
2022-09-23T15:16:08.309Z,0.90
2022-09-23T15:18:40.169Z,1.55
2022-09-23T15:21:10.794Z,1.40
2022-09-23T15:23:42.444Z,0.98
2022-09-23T15:26:20.336Z,1.40
2022-09-23T15:28:50.033Z,1.23
2022-09-23T15:31:23.612Z,0.75
2022-09-23T15:33:52.279Z,2.35
2022-09-23T15:36:34.144Z,1.35
2022-09-23T15:39:06.981Z,0.80
2022-09-23T15:41:35.648Z,1.85
2022-09-23T15:44:18.712Z,0.88
2022-09-23T15:46:56.660Z,0.95
2022-09-23T15:49:36.199Z,0.73
2022-09-23T15:52:09.715Z,0.80
2022-09-23T15:54:40.177Z,0.75
2022-09-23T15:57:07.525Z,1.00
2022-09-23T15:59:34.231Z,0.77
2022-09-23T16:02:08.532Z,1.15
2022-09-23T16:04:36.237Z,0.70
2022-09-23T16:07:05.477Z,0.60
2022-09-23T16:09:36.521Z,0.70
2022-09-23T16:12:04.528Z,0.88
2022-09-23T16:14:32.898Z,0.65
2022-09-23T16:17:19.451Z,1.10
2022-09-23T16:22:19.468Z,1.80
2022-09-23T16:24:47.441Z,0.88
2022-09-23T16:27:24.020Z,0.85
2022-09-23T16:29:50.714Z,1.02
2022-09-23T16:32:22.140Z,0.73
2022-09-23T16:34:50.738Z,0.93
2022-09-23T16:37:21.434Z,0.88
2022-09-23T16:39:49.853Z,1.00
2022-09-23T16:42:16.790Z,0.75
2022-09-23T16:44:46.982Z,1.20
2022-09-23T16:47:40.010Z,1.40
2022-09-23T16:50:22.879Z,1.10
2022-09-23T16:53:20.672Z,1.40
2022-09-23T17:00:52.949Z,1.45
2022-09-23T17:03:40.142Z,1.38
2022-09-23T17:06:19.944Z,1.50
2022-09-23T17:08:58.770Z,1.58
2022-09-23T17:16:25.409Z,1.13
2022-09-23T17:19:54.574Z,1.33
2022-09-23T17:28:15.180Z,2.05
2022-09-23T17:31:36.727Z,1.83
2022-09-23T17:34:03.269Z,2.33
2022-09-23T17:36:29.726Z,2.95
2022-09-23T17:38:56.154Z,1.80
2022-09-23T17:41:22.771Z,2.10
2022-09-23T17:43:54.849Z,2.15
2022-09-23T17:46:21.328Z,2.42
2022-09-23T17:48:47.803Z,2.30
2022-09-23T17:51:16.602Z,2.63
2022-09-23T17:53:45.465Z,2.70
2022-09-23T17:56:16.007Z,3.00
2022-09-23T17:58:43.378Z,2.72
2022-09-23T18:01:12.544Z,2.70
2022-09-23T18:03:39.632Z,2.95
2022-09-23T18:06:17.920Z,2.80
2022-09-23T18:08:46.072Z,3.25
2022-09-23T18:11:14.510Z,3.05
2022-09-23T18:13:41.253Z,2.75
2022-09-23T18:16:07.795Z,3.55
2022-09-23T18:18:34.307Z,3.20
2022-09-23T18:21:02.723Z,3.03
2022-09-23T18:23:29.386Z,3.53
2022-09-23T18:25:56.349Z,2.60
2022-09-23T18:28:23.186Z,2.22
2022-09-23T18:30:57.007Z,2.55
2022-09-23T18:33:24.196Z,2.85
2022-09-23T18:35:51.688Z,2.38
2022-09-23T18:38:18.993Z,3.05
2022-09-23T18:40:55.313Z,2.88
2022-09-23T18:43:29.519Z,2.72
2022-09-23T18:46:05.139Z,2.45
2022-09-23T18:48:51.868Z,5.15
2022-09-23T18:51:20.635Z,8.60
2022-09-23T18:53:57.694Z,7.15
2022-09-23T18:56:26.957Z,16.95
2022-09-23T18:58:55.181Z,4.47
2022-09-23T19:01:23.683Z,7.22
2022-09-23T19:03:55.350Z,7.28
2022-09-23T19:06:22.816Z,24.55
2022-09-23T19:08:53.710Z,3.60
2022-09-23T19:11:21.762Z,3.30
2022-09-23T19:13:54.091Z,2.80
2022-09-23T19:16:22.454Z,6.20
2022-09-23T19:18:49.414Z,10.90
2022-09-23T19:21:17.944Z,10.57
2022-09-23T19:23:49.979Z,5.97
2022-09-23T19:26:19.545Z,5.10
2022-09-23T19:28:50.949Z,4.53
2022-09-23T19:31:25.974Z,5.05
2022-09-23T19:36:31.656Z,1.92
2022-09-23T19:39:02.565Z,2.20
2022-09-23T19:41:32.119Z,2.05
2022-09-23T19:44:02.900Z,2.20
2022-09-23T19:46:34.532Z,1.52
2022-09-23T19:49:01.017Z,1.60
2022-09-23T19:51:28.166Z,1.58
2022-09-23T19:53:54.763Z,2.05
2022-09-23T19:56:21.377Z,2.30
2022-09-23T19:58:52.107Z,2.13
2022-09-23T20:01:18.710Z,2.58
2022-09-23T20:03:45.526Z,2.55
2022-09-23T20:06:11.984Z,2.35
2022-09-23T20:08:39.156Z,3.70
2022-09-23T20:11:14.105Z,2.78
2022-09-23T20:16:11.278Z,2.60
2022-09-23T20:18:38.643Z,2.92
2022-09-23T20:21:06.615Z,3.45
2022-09-23T20:23:33.226Z,3.38
2022-09-23T20:26:19.824Z,2.80
2022-09-23T20:28:46.739Z,2.97
2022-09-23T20:31:14.662Z,4.05
2022-09-23T20:33:41.520Z,3.40
2022-09-23T20:36:09.554Z,3.38
2022-09-23T20:38:40.222Z,3.35
2022-09-23T20:41:09.235Z,3.83
2022-09-23T20:43:35.861Z,4.03
2022-09-23T20:46:05.255Z,3.58
2022-09-23T20:48:31.774Z,3.80
2022-09-23T20:51:02.353Z,4.03
2022-09-23T20:53:29.618Z,3.95
2022-09-23T20:55:57.308Z,3.88
2022-09-23T20:58:34.014Z,3.70
2022-09-23T21:01:04.409Z,3.78
2022-09-23T21:03:32.403Z,3.20
2022-09-23T21:06:01.191Z,3.33
2022-09-23T21:08:27.766Z,3.45
2022-09-23T21:10:58.319Z,3.20
2022-09-23T21:13:25.151Z,3.42
2022-09-23T21:15:51.617Z,3.22
2022-09-23T21:18:22.272Z,3.30
2022-09-23T21:20:59.400Z,3.78
2022-09-23T21:23:27.451Z,3.20
2022-09-23T21:26:09.116Z,3.22
2022-09-23T21:28:38.308Z,3.20
2022-09-23T21:31:07.608Z,3.70
2022-09-23T21:33:36.575Z,3.85
2022-09-23T21:36:05.227Z,4.57
2022-09-23T21:38:36.030Z,5.25
2022-09-23T21:41:07.842Z,4.88
2022-09-23T21:43:37.231Z,4.25
2022-09-23T21:46:09.456Z,3.92
2022-09-23T21:48:41.110Z,4.63
2022-09-23T21:51:12.024Z,4.45
2022-09-23T21:53:39.454Z,4.18
2022-09-23T21:56:21.328Z,3.78
2022-09-23T21:58:48.740Z,4.15
2022-09-23T22:01:21.593Z,5.18
2022-09-23T22:04:18.096Z,4.72
2022-09-23T22:06:45.550Z,3.88
2022-09-23T22:09:15.029Z,4.35
2022-09-23T22:12:00.191Z,4.38
2022-09-23T22:14:27.083Z,4.65
2022-09-23T22:16:57.434Z,4.65
2022-09-23T22:19:47.167Z,4.55
2022-09-23T22:22:15.690Z,5.28
2022-09-23T22:24:43.338Z,5.38
2022-09-23T22:27:11.492Z,4.60
2022-09-23T22:29:56.281Z,5.05
2022-09-23T22:32:41.058Z,5.00
2022-09-23T22:35:08.894Z,5.13
2022-09-23T22:37:36.245Z,5.00
2022-09-23T22:40:08.495Z,4.88
2022-09-23T22:42:36.507Z,5.53
2022-09-23T22:45:05.898Z,5.18
2022-09-23T22:47:37.539Z,5.50
2022-09-23T22:50:09.234Z,5.55
2022-09-23T22:52:36.451Z,5.65
2022-09-23T22:55:03.708Z,5.47
2022-09-23T22:57:31.134Z,5.00
2022-09-23T22:59:57.687Z,5.93
2022-09-23T23:02:24.148Z,5.20
2022-09-23T23:04:50.875Z,5.18
2022-09-23T23:07:22.859Z,4.88
2022-09-23T23:09:50.379Z,4.57
2022-09-23T23:12:20.917Z,5.45
2022-09-23T23:14:48.918Z,5.25
2022-09-23T23:17:15.600Z,4.72
2022-09-23T23:19:42.121Z,5.03
2022-09-23T23:22:08.531Z,5.10
2022-09-23T23:24:35.050Z,4.35
2022-09-23T23:27:01.555Z,4.80
2022-09-23T23:29:28.043Z,4.65
2022-09-23T23:31:54.726Z,5.05
2022-09-23T23:34:22.084Z,4.63
2022-09-23T23:36:54.634Z,6.50
2022-09-23T23:39:26.178Z,5.28
2022-09-23T23:41:56.951Z,5.47
2022-09-23T23:44:25.475Z,5.80
2022-09-23T23:46:52.712Z,5.38
2022-09-23T23:49:19.496Z,5.18
2022-09-23T23:51:46.384Z,5.63
2022-09-23T23:54:12.897Z,4.68
2022-09-23T23:56:39.423Z,5.57
2022-09-23T23:59:05.940Z,5.55
